createdAt,value
2022-12-01T00:02:56.148Z,4.39
2022-12-01T00:07:59.211Z,4.41
2022-12-01T00:13:03.507Z,4.44
2022-12-01T00:18:07.795Z,4.40
2022-12-01T00:23:09.210Z,4.46
2022-12-01T00:28:10.647Z,4.39
2022-12-01T00:33:12.182Z,4.41
2022-12-01T00:38:13.954Z,4.40
2022-12-01T00:43:15.337Z,4.37
2022-12-01T00:48:16.875Z,4.39
2022-12-01T00:53:18.593Z,4.38
2022-12-01T00:58:20.396Z,4.40
2022-12-01T01:03:21.835Z,4.39
2022-12-01T01:08:23.301Z,4.36
2022-12-01T01:13:24.733Z,4.38
2022-12-01T01:18:26.295Z,4.35
2022-12-01T01:23:27.713Z,4.35
2022-12-01T01:28:30.427Z,4.35
2022-12-01T01:33:31.977Z,4.35
2022-12-01T01:38:34.384Z,4.32
2022-12-01T01:43:49.364Z,4.35
2022-12-01T01:49:01.052Z,4.33
2022-12-01T01:54:06.493Z,4.33
2022-12-01T01:59:08.120Z,4.36
2022-12-01T02:04:09.555Z,4.32
2022-12-01T02:09:12.592Z,4.34
2022-12-01T02:14:37.778Z,4.37
2022-12-01T02:20:14.528Z,4.32
2022-12-01T02:25:21.078Z,4.36
2022-12-01T02:30:28.349Z,4.37
2022-12-01T02:35:46.325Z,4.33
2022-12-01T02:40:56.631Z,4.31
2022-12-01T02:46:26.062Z,4.34
2022-12-01T02:51:34.406Z,4.32
2022-12-01T02:56:35.867Z,4.30
2022-12-01T03:01:50.488Z,4.34
2022-12-01T03:07:16.864Z,4.33
2022-12-01T03:12:21.441Z,4.32
2022-12-01T03:17:29.097Z,4.35
2022-12-01T03:22:39.944Z,4.31
2022-12-01T03:28:13.529Z,4.31
2022-12-01T03:33:13.894Z,4.29
2022-12-01T03:38:22.572Z,4.28
2022-12-01T03:43:29.675Z,4.30
2022-12-01T03:48:31.676Z,4.29
2022-12-01T03:53:43.691Z,4.25
2022-12-01T03:58:48.926Z,4.25
2022-12-01T04:03:50.333Z,4.28
2022-12-01T04:08:51.883Z,4.28
2022-12-01T04:13:53.274Z,4.24
2022-12-01T04:18:54.674Z,4.24
2022-12-01T04:24:02.021Z,4.25
2022-12-01T04:29:06.463Z,4.24
2022-12-01T04:34:08.002Z,4.23
2022-12-01T04:39:09.449Z,4.22
2022-12-01T04:44:11.512Z,4.23
2022-12-01T04:49:13.007Z,4.21
2022-12-01T04:54:15.445Z,4.22
2022-12-01T04:59:16.896Z,4.18
2022-12-01T05:04:18.476Z,4.19
2022-12-01T05:09:21.304Z,4.15
2022-12-01T05:14:22.791Z,4.13
2022-12-01T05:19:43.108Z,4.14
2022-12-01T05:24:44.549Z,4.17
2022-12-01T05:29:46.363Z,4.15
2022-12-01T05:34:47.970Z,4.12
2022-12-01T05:39:49.575Z,4.08
2022-12-01T05:44:51.153Z,4.04
2022-12-01T05:49:52.530Z,3.98
2022-12-01T05:54:53.891Z,3.95
2022-12-01T05:59:55.568Z,3.97
2022-12-01T06:04:57.184Z,4.03
2022-12-01T06:09:58.659Z,3.95
2022-12-01T06:15:00.424Z,3.97
2022-12-01T06:20:03.854Z,3.95
2022-12-01T06:25:06.006Z,3.92
2022-12-01T06:30:08.586Z,3.93
2022-12-01T06:35:13.017Z,3.96
2022-12-01T06:40:14.901Z,3.96
2022-12-01T06:45:16.534Z,3.92
2022-12-01T06:50:18.180Z,3.90
2022-12-01T06:55:20.956Z,3.90
2022-12-01T07:00:22.959Z,3.89
2022-12-01T07:05:26.563Z,3.85
2022-12-01T07:10:28.195Z,3.87
2022-12-01T07:15:30.002Z,3.88
2022-12-01T07:20:31.485Z,3.90
2022-12-01T07:25:33.103Z,3.93
2022-12-01T07:30:34.619Z,3.93
2022-12-01T07:35:36.029Z,3.91
2022-12-01T07:40:37.435Z,3.85
2022-12-01T07:45:38.903Z,3.84
2022-12-01T07:50:40.337Z,3.86
2022-12-01T07:55:48.488Z,3.87
2022-12-01T08:00:49.947Z,3.92
2022-12-01T08:05:58.834Z,3.94
2022-12-01T08:11:02.698Z,4.00
2022-12-01T08:16:05.499Z,4.02
2022-12-01T08:21:12.278Z,4.08
2022-12-01T08:26:16.891Z,4.15
2022-12-01T08:31:21.306Z,4.17
2022-12-01T08:36:23.479Z,4.22
2022-12-01T08:41:25.292Z,4.25
2022-12-01T08:46:36.566Z,4.23
2022-12-01T08:51:37.972Z,4.31
2022-12-01T08:56:44.487Z,4.35
2022-12-01T09:01:54.979Z,4.40
2022-12-01T09:06:57.977Z,4.44
2022-12-01T09:11:59.368Z,4.49
2022-12-01T09:17:00.895Z,4.57
2022-12-01T09:22:02.805Z,4.51
2022-12-01T09:27:05.403Z,4.61
2022-12-01T09:32:06.798Z,4.68
2022-12-01T09:37:08.260Z,4.58
2022-12-01T09:42:15.925Z,4.60
2022-12-01T09:47:24.539Z,4.77
2022-12-01T09:52:29.258Z,4.75
2022-12-01T09:57:36.936Z,4.71
2022-12-01T10:02:43.177Z,4.76
2022-12-01T10:07:51.417Z,4.81
2022-12-01T10:12:53.090Z,4.93
2022-12-01T10:18:22.018Z,4.90
2022-12-01T10:23:33.958Z,4.93
2022-12-01T10:28:45.296Z,5.00
2022-12-01T10:34:15.027Z,5.09
2022-12-01T10:39:34.826Z,5.11
2022-12-01T10:44:36.504Z,5.00
2022-12-01T10:49:40.359Z,5.10
2022-12-01T10:54:42.934Z,5.22
2022-12-01T11:00:21.473Z,5.34
2022-12-01T11:05:41.205Z,6.38
2022-12-01T11:10:48.995Z,6.33
2022-12-01T11:16:01.908Z,7.10
2022-12-01T11:21:26.300Z,6.80
2022-12-01T11:26:31.750Z,7.04
2022-12-01T11:31:50.550Z,6.91
2022-12-01T11:36:56.564Z,7.33
2022-12-01T11:42:01.183Z,6.89
2022-12-01T11:47:24.931Z,7.18
2022-12-01T11:52:32.040Z,6.96
2022-12-01T11:57:37.382Z,6.60
2022-12-01T12:03:01.778Z,6.44
2022-12-01T12:08:15.834Z,6.16
2022-12-01T12:13:45.256Z,6.23
2022-12-01T12:19:33.697Z,6.09
2022-12-01T12:25:22.982Z,6.05
2022-12-01T12:30:31.924Z,5.89
2022-12-01T12:36:05.620Z,5.85
2022-12-01T12:41:43.131Z,5.84
2022-12-01T12:47:07.067Z,5.79
2022-12-01T12:52:16.567Z,5.97
2022-12-01T12:57:25.717Z,5.96
2022-12-01T13:02:37.614Z,5.73
2022-12-01T13:08:05.754Z,5.61
2022-12-01T13:13:38.370Z,5.55
2022-12-01T13:18:48.784Z,5.52
2022-12-01T13:23:52.355Z,5.42
2022-12-01T13:28:56.639Z,5.44
2022-12-01T13:34:03.677Z,5.46
2022-12-01T13:39:15.100Z,5.51
2022-12-01T13:44:31.453Z,5.36
2022-12-01T13:49:46.582Z,5.24
2022-12-01T13:55:09.724Z,5.23
2022-12-01T14:00:29.768Z,5.16
2022-12-01T14:05:40.380Z,5.13
2022-12-01T14:10:58.456Z,5.10
2022-12-01T14:16:02.526Z,5.07
2022-12-01T14:21:07.638Z,5.09
2022-12-01T14:26:23.263Z,5.14
2022-12-01T14:31:33.930Z,5.15
2022-12-01T14:36:46.844Z,5.17
2022-12-01T14:41:53.239Z,5.20
2022-12-01T14:47:01.753Z,5.20
2022-12-01T14:52:13.265Z,5.19
2022-12-01T14:57:20.239Z,5.16
2022-12-01T15:02:21.779Z,5.23
2022-12-01T15:07:23.279Z,5.20
2022-12-01T15:12:27.687Z,5.16
2022-12-01T15:17:37.703Z,5.13
2022-12-01T15:22:41.115Z,5.12
2022-12-01T15:27:43.659Z,5.07
2022-12-01T15:32:45.899Z,5.07
2022-12-01T15:37:48.665Z,5.04
2022-12-01T15:43:04.939Z,5.01
2022-12-01T15:48:15.383Z,4.97
2022-12-01T15:53:23.259Z,4.94
2022-12-01T15:58:27.432Z,4.93
2022-12-01T16:03:29.548Z,4.90
2022-12-01T16:08:31.189Z,4.86
2022-12-01T16:14:03.583Z,4.88
2022-12-01T16:19:07.957Z,4.86
2022-12-01T16:24:15.418Z,4.86
2022-12-01T16:29:22.879Z,4.84
2022-12-01T16:34:45.173Z,4.82
2022-12-01T16:39:46.337Z,4.78
2022-12-01T16:44:53.456Z,4.77
2022-12-01T16:49:55.718Z,4.76
2022-12-01T16:55:00.003Z,4.74
2022-12-01T17:00:01.823Z,4.70
2022-12-01T17:05:03.423Z,4.72
2022-12-01T17:10:05.701Z,4.71
2022-12-01T17:15:08.872Z,4.65
2022-12-01T17:20:11.107Z,4.65
2022-12-01T17:25:15.780Z,4.63
2022-12-01T17:30:19.276Z,4.62
2022-12-01T17:35:22.553Z,4.60
2022-12-01T17:40:27.571Z,4.59
2022-12-01T17:45:29.219Z,4.55
2022-12-01T17:50:30.943Z,4.58
2022-12-01T17:55:33.511Z,4.53
2022-12-01T18:00:35.577Z,4.55
2022-12-01T18:05:38.769Z,4.50
2022-12-01T18:10:41.492Z,4.51
2022-12-01T18:15:43.393Z,4.50
2022-12-01T18:20:48.117Z,4.49
2022-12-01T18:25:49.663Z,4.49
2022-12-01T18:30:51.503Z,4.46
2022-12-01T18:35:54.188Z,4.41
2022-12-01T18:40:59.780Z,4.41
2022-12-01T18:46:03.371Z,4.45
2022-12-01T18:51:11.015Z,4.41
2022-12-01T18:56:15.190Z,4.41
2022-12-01T19:01:23.431Z,4.41
2022-12-01T19:06:26.374Z,4.41
2022-12-01T19:11:29.060Z,4.43
2022-12-01T19:16:33.345Z,4.44
2022-12-01T19:21:44.158Z,4.40
2022-12-01T19:26:46.332Z,4.47
2022-12-01T19:31:49.172Z,4.44
2022-12-01T19:36:53.583Z,4.44
2022-12-01T19:41:57.721Z,4.45
2022-12-01T19:46:59.309Z,4.45
2022-12-01T19:52:06.308Z,4.46
2022-12-01T19:57:07.812Z,4.43
2022-12-01T20:02:11.904Z,4.42
2022-12-01T20:07:13.537Z,4.41
2022-12-01T20:12:15.276Z,4.37
2022-12-01T20:17:17.473Z,4.32
2022-12-01T20:22:23.371Z,4.33
2022-12-01T20:27:25.123Z,4.29
2022-12-01T20:32:27.083Z,4.29
2022-12-01T20:37:30.183Z,4.32
2022-12-01T20:42:31.678Z,4.28
2022-12-01T20:47:36.852Z,4.27
2022-12-01T20:52:41.548Z,4.27
2022-12-01T20:57:45.371Z,4.28
2022-12-01T21:02:50.245Z,4.29
2022-12-01T21:07:53.308Z,4.26
2022-12-01T21:13:37.684Z,4.24
2022-12-01T21:19:06.911Z,4.25
2022-12-01T21:24:09.215Z,4.23
2022-12-01T21:29:21.883Z,4.21
2022-12-01T21:34:27.903Z,4.22
2022-12-01T21:39:30.500Z,4.19
2022-12-01T21:44:38.030Z,4.19
2022-12-01T21:49:39.827Z,4.19
2022-12-01T21:54:43.823Z,4.20
2022-12-01T21:59:45.329Z,4.16
2022-12-01T22:04:47.427Z,4.14
2022-12-01T22:09:52.482Z,4.16
2022-12-01T22:15:03.012Z,4.15
2022-12-01T22:20:21.049Z,4.13
2022-12-01T22:25:26.321Z,4.11
2022-12-01T22:30:28.514Z,4.10
2022-12-01T22:35:36.079Z,4.12
2022-12-01T22:40:48.797Z,4.09
2022-12-01T22:45:59.957Z,4.09
2022-12-01T22:51:21.990Z,4.11
2022-12-01T22:56:39.673Z,4.08
2022-12-01T23:01:48.277Z,4.05
2022-12-01T23:06:58.699Z,4.07
2022-12-01T23:12:28.853Z,4.06
2022-12-01T23:17:32.943Z,4.04
2022-12-01T23:22:34.328Z,4.03
2022-12-01T23:27:37.906Z,4.03
2022-12-01T23:32:39.797Z,3.94
2022-12-01T23:37:42.848Z,3.87
2022-12-01T23:42:44.281Z,3.87
2022-12-01T23:47:46.163Z,3.86
2022-12-01T23:52:48.435Z,3.87
2022-12-01T23:57:50.219Z,3.73
